createdAt,value
2017-11-10T00:01:20.658Z,9.20
2017-11-10T00:03:48.160Z,14.57
2017-11-10T00:06:15.660Z,13.00
2017-11-10T00:08:43.176Z,12.07
2017-11-10T00:11:11.453Z,9.13
2017-11-10T00:13:39.702Z,12.57
2017-11-10T00:16:07.269Z,11.67
2017-11-10T00:18:34.761Z,8.27
2017-11-10T00:21:02.267Z,10.70
2017-11-10T00:23:29.820Z,8.80
2017-11-10T00:25:57.296Z,6.87
2017-11-10T00:28:24.795Z,9.87
2017-11-10T00:31:06.704Z,9.17
2017-11-10T00:33:34.183Z,8.50
2017-11-10T00:36:02.679Z,7.53
2017-11-10T00:38:30.180Z,8.60
2017-11-10T00:40:58.622Z,9.63
2017-11-10T00:43:26.176Z,7.90
2017-11-10T00:45:53.688Z,7.17
2017-11-10T00:48:21.162Z,12.47
2017-11-10T00:50:48.692Z,10.13
2017-11-10T00:53:18.635Z,8.60
2017-11-10T00:55:46.125Z,8.40
2017-11-10T00:58:13.608Z,8.60
2017-11-10T01:00:41.872Z,10.23
2017-11-10T01:03:09.380Z,13.53
2017-11-10T01:05:36.927Z,8.93
2017-11-10T01:08:10.228Z,11.80
2017-11-10T01:10:37.747Z,9.73
2017-11-10T01:13:06.039Z,12.40
2017-11-10T01:15:44.287Z,8.77
2017-11-10T01:18:19.032Z,12.20
2017-11-10T01:20:53.063Z,10.67
2017-11-10T01:23:21.357Z,9.40
2017-11-10T01:25:48.929Z,8.57
2017-11-10T01:28:16.472Z,9.47
2017-11-10T01:30:43.997Z,10.37
2017-11-10T01:33:11.492Z,10.93
2017-11-10T01:35:39.040Z,9.57
2017-11-10T01:38:06.544Z,10.53
2017-11-10T01:40:34.061Z,10.43
2017-11-10T01:43:02.323Z,12.37
2017-11-10T01:45:30.572Z,10.90
2017-11-10T01:48:00.004Z,14.70
2017-11-10T01:50:28.292Z,10.57
2017-11-10T01:52:55.754Z,8.50
2017-11-10T01:55:23.311Z,9.57
2017-11-10T01:57:50.875Z,10.53
2017-11-10T02:00:18.392Z,9.27
2017-11-10T02:02:45.914Z,9.17
2017-11-10T02:05:13.673Z,8.83
2017-11-10T02:07:41.172Z,9.47
2017-11-10T02:10:08.671Z,10.97
2017-11-10T02:12:36.252Z,10.10
2017-11-10T02:15:03.748Z,13.73
2017-11-10T02:17:31.249Z,9.57
2017-11-10T02:19:58.744Z,11.60
2017-11-10T02:22:26.248Z,10.63
2017-11-10T02:24:54.518Z,8.63
2017-11-10T02:27:22.854Z,9.70
2017-11-10T02:29:50.331Z,13.70
2017-11-10T02:32:17.823Z,9.07
2017-11-10T02:34:51.310Z,10.03
2017-11-10T02:37:18.855Z,9.90
2017-11-10T02:39:47.113Z,9.57
2017-11-10T02:42:14.596Z,11.00
2017-11-10T02:44:42.085Z,11.77
2017-11-10T02:47:09.571Z,9.80
2017-11-10T02:49:37.067Z,10.10
2017-11-10T02:52:05.196Z,11.47
2017-11-10T02:54:32.718Z,10.30
2017-11-10T02:57:00.268Z,8.80
2017-11-10T02:59:27.760Z,12.83
2017-11-10T03:01:55.275Z,9.47
2017-11-10T03:04:23.552Z,9.63
2017-11-10T03:06:51.843Z,9.70
2017-11-10T03:09:19.363Z,10.90
2017-11-10T03:11:46.837Z,10.90
2017-11-10T03:14:15.100Z,13.70
2017-11-10T03:16:42.628Z,11.03
2017-11-10T03:19:10.145Z,11.00
2017-11-10T03:21:37.683Z,9.73
2017-11-10T03:24:05.948Z,10.53
2017-11-10T03:26:33.419Z,11.03
2017-11-10T03:29:00.903Z,9.63
2017-11-10T03:31:28.431Z,11.50
2017-11-10T03:33:56.676Z,9.77
2017-11-10T03:36:24.203Z,12.13
2017-11-10T03:38:52.412Z,10.97
2017-11-10T03:41:20.739Z,11.73
2017-11-10T03:43:48.291Z,10.77
2017-11-10T03:46:15.785Z,10.63
2017-11-10T03:48:43.302Z,7.57
2017-11-10T03:51:10.784Z,11.60
2017-11-10T03:53:38.300Z,10.17
2017-11-10T03:56:06.585Z,9.57
2017-11-10T03:58:34.835Z,9.53
2017-11-10T04:01:03.158Z,9.17
2017-11-10T04:03:30.707Z,12.37
2017-11-10T04:05:58.215Z,9.90
2017-11-10T04:08:25.696Z,9.47
2017-11-10T04:10:53.947Z,16.07
2017-11-10T04:13:21.474Z,8.87
2017-11-10T04:15:49.019Z,9.40
2017-11-10T04:18:16.499Z,12.73
2017-11-10T04:20:44.056Z,21.13
2017-11-10T04:23:11.555Z,10.97
2017-11-10T04:25:39.815Z,10.83
2017-11-10T04:28:07.385Z,15.60
2017-11-10T04:30:34.908Z,12.27
2017-11-10T04:33:02.371Z,9.97
2017-11-10T04:35:29.892Z,10.77
2017-11-10T04:37:57.414Z,14.70
2017-11-10T04:40:25.868Z,11.80
2017-11-10T04:42:53.411Z,12.90
2017-11-10T04:45:20.893Z,10.17
2017-11-10T04:47:49.148Z,11.90
2017-11-10T04:50:16.747Z,12.33
2017-11-10T04:52:44.300Z,12.80
2017-11-10T04:55:11.808Z,13.50
2017-11-10T04:57:39.324Z,13.10
2017-11-10T05:00:06.809Z,11.33
2017-11-10T05:02:34.300Z,13.33
2017-11-10T05:05:02.050Z,12.47
2017-11-10T05:07:29.526Z,13.20
2017-11-10T05:09:57.037Z,12.50
2017-11-10T05:12:26.412Z,13.30
2017-11-10T05:14:54.662Z,12.70
2017-11-10T05:17:22.156Z,13.03
2017-11-10T05:19:50.507Z,20.77
2017-11-10T05:22:18.008Z,16.43
2017-11-10T05:24:45.547Z,21.43
2017-11-10T05:27:13.826Z,13.47
2017-11-10T05:29:41.381Z,22.07
2017-11-10T05:32:09.624Z,17.97
2017-11-10T05:34:37.125Z,17.03
2017-11-10T05:37:04.672Z,19.93
2017-11-10T05:39:32.916Z,14.87
2017-11-10T05:42:00.997Z,12.37
2017-11-10T05:44:28.503Z,15.70
2017-11-10T05:46:56.045Z,15.23
2017-11-10T05:49:23.570Z,14.60
2017-11-10T05:51:51.044Z,11.60
2017-11-10T05:54:19.291Z,15.13
2017-11-10T05:56:46.782Z,16.90
2017-11-10T05:59:15.037Z,16.60
2017-11-10T06:01:42.587Z,14.93
2017-11-10T06:04:10.159Z,15.23
2017-11-10T06:06:37.651Z,15.60
2017-11-10T06:09:05.176Z,25.83
2017-11-10T06:11:32.704Z,31.80
2017-11-10T06:14:00.190Z,14.70
2017-11-10T06:16:27.708Z,20.10
2017-11-10T06:18:55.251Z,18.17
2017-11-10T06:21:22.790Z,20.63
2017-11-10T06:23:51.051Z,17.40
2017-11-10T06:26:18.546Z,15.90
2017-11-10T06:28:46.041Z,19.73
2017-11-10T06:31:13.538Z,14.37
2017-11-10T06:33:41.846Z,16.73
2017-11-10T06:36:09.372Z,19.47
2017-11-10T06:38:37.641Z,18.27
2017-11-10T06:41:05.996Z,16.83
2017-11-10T06:43:33.489Z,16.63
2017-11-10T06:46:01.141Z,15.90
2017-11-10T06:48:29.402Z,18.63
2017-11-10T06:50:57.681Z,20.10
2017-11-10T06:53:25.988Z,21.50
2017-11-10T06:55:53.484Z,20.13
2017-11-10T06:58:21.540Z,35.90
2017-11-10T07:00:49.048Z,20.90
2017-11-10T07:03:20.634Z,20.97
2017-11-10T07:05:48.191Z,17.67
2017-11-10T07:08:15.700Z,19.53
2017-11-10T07:10:44.069Z,22.23
2017-11-10T07:13:11.635Z,30.00
2017-11-10T07:15:39.944Z,34.80
2017-11-10T07:18:30.064Z,22.60
2017-11-10T07:20:57.551Z,27.43
2017-11-10T07:23:25.868Z,18.27
2017-11-10T07:25:53.365Z,21.33
2017-11-10T07:28:20.935Z,17.63
2017-11-10T07:30:48.499Z,22.70
2017-11-10T07:33:16.067Z,23.73
2017-11-10T07:35:46.461Z,19.80
2017-11-10T07:38:19.062Z,17.53
2017-11-10T07:40:46.601Z,13.70
2017-11-10T07:43:14.146Z,15.20
2017-11-10T07:45:42.606Z,19.77
2017-11-10T07:48:10.174Z,19.57
2017-11-10T07:50:38.484Z,15.43
2017-11-10T07:53:05.999Z,15.83
2017-11-10T07:55:33.534Z,18.20
2017-11-10T07:58:01.879Z,15.47
2017-11-10T08:00:30.245Z,16.30
2017-11-10T08:02:57.789Z,13.43
2017-11-10T08:05:25.305Z,14.47
2017-11-10T08:07:52.787Z,18.93
2017-11-10T08:10:24.639Z,14.73
2017-11-10T08:12:57.649Z,16.17
2017-11-10T08:15:25.701Z,14.73
2017-11-10T08:21:08.389Z,15.37
2017-11-10T08:23:38.359Z,12.80
2017-11-10T08:26:10.454Z,17.20
2017-11-10T08:28:38.949Z,14.23
2017-11-10T08:31:13.958Z,15.53
2017-11-10T08:33:42.225Z,13.50
2017-11-10T08:36:18.488Z,12.37
2017-11-10T08:38:54.041Z,10.30
2017-11-10T08:41:23.247Z,14.37
2017-11-10T08:43:57.140Z,10.70
2017-11-10T08:46:25.215Z,10.47
2017-11-10T08:48:52.797Z,12.63
2017-11-10T08:51:20.345Z,13.67
2017-11-10T08:53:47.885Z,9.63
2017-11-10T08:56:15.377Z,12.33
2017-11-10T08:58:43.753Z,13.00
2017-11-10T09:01:12.021Z,11.17
2017-11-10T09:03:41.145Z,12.90
2017-11-10T09:06:08.748Z,15.93
2017-11-10T09:08:36.285Z,11.20
2017-11-10T09:11:03.800Z,12.70
2017-11-10T09:13:32.423Z,10.23
2017-11-10T09:15:59.967Z,11.60
2017-11-10T09:18:27.474Z,9.23
2017-11-10T09:20:54.972Z,11.70
2017-11-10T09:23:22.517Z,9.30
2017-11-10T09:25:52.098Z,10.77
2017-11-10T09:28:21.305Z,11.70
2017-11-10T09:31:07.655Z,12.07
2017-11-10T09:33:38.652Z,9.30
2017-11-10T09:36:08.678Z,10.53
2017-11-10T09:38:39.080Z,11.53
2017-11-10T09:41:26.348Z,8.50
2017-11-10T09:44:00.456Z,9.87
2017-11-10T09:46:32.573Z,14.13
2017-11-10T09:49:07.763Z,13.10
2017-11-10T09:51:53.020Z,9.57
2017-11-10T09:54:26.175Z,10.57
2017-11-10T09:57:10.521Z,5.60
2017-11-10T09:59:48.937Z,13.40
2017-11-10T10:02:16.944Z,10.67
2017-11-10T10:05:05.420Z,9.53
2017-11-10T10:07:42.900Z,11.33
2017-11-10T10:10:16.285Z,12.93
2017-11-10T10:12:50.251Z,7.73
2017-11-10T10:15:20.629Z,10.17
2017-11-10T10:21:05.149Z,7.87
2017-11-10T10:26:18.710Z,9.77
2017-11-10T10:28:46.268Z,7.33
2017-11-10T10:31:39.100Z,10.53
2017-11-10T10:34:13.401Z,8.13
2017-11-10T10:36:40.938Z,9.03
2017-11-10T10:39:09.209Z,8.83
2017-11-10T10:41:36.759Z,9.20
2017-11-10T10:44:05.124Z,8.87
2017-11-10T10:46:32.757Z,9.20
2017-11-10T10:49:00.275Z,8.77
2017-11-10T10:51:27.768Z,7.57
2017-11-10T10:53:55.242Z,6.63
2017-11-10T10:56:22.725Z,9.40
2017-11-10T10:58:51.007Z,6.47
2017-11-10T11:01:18.489Z,6.93
2017-11-10T11:03:46.009Z,6.90
2017-11-10T11:06:13.479Z,8.37
2017-11-10T11:08:41.009Z,7.80
2017-11-10T11:11:08.566Z,6.33
2017-11-10T11:13:37.853Z,7.50
2017-11-10T11:16:07.410Z,6.73
2017-11-10T11:18:34.934Z,7.97
2017-11-10T11:21:05.340Z,5.23
2017-11-10T11:23:47.367Z,5.93
2017-11-10T11:26:16.039Z,7.03
2017-11-10T11:28:47.718Z,3.80
2017-11-10T11:31:15.838Z,8.83
2017-11-10T11:33:43.344Z,7.80
2017-11-10T11:36:10.855Z,5.77
2017-11-10T11:38:38.380Z,4.93
2017-11-10T11:41:05.888Z,6.73
2017-11-10T11:43:33.396Z,5.37
2017-11-10T11:46:00.924Z,5.00
2017-11-10T11:48:28.441Z,6.97
2017-11-10T11:50:55.957Z,7.93
2017-11-10T11:53:24.220Z,6.17
2017-11-10T11:55:51.760Z,4.97
2017-11-10T11:58:19.324Z,5.27
2017-11-10T12:00:46.869Z,5.77
2017-11-10T12:03:14.421Z,6.50
2017-11-10T12:05:41.964Z,6.17
2017-11-10T12:08:09.445Z,5.30
2017-11-10T12:10:37.813Z,5.97
2017-11-10T12:13:05.305Z,7.10
2017-11-10T12:15:33.555Z,8.10
2017-11-10T12:18:01.114Z,6.60
2017-11-10T12:20:28.701Z,8.60
2017-11-10T12:23:10.004Z,4.93
2017-11-10T12:25:37.641Z,4.63
2017-11-10T12:28:05.914Z,3.60
2017-11-10T12:30:34.176Z,5.90
2017-11-10T12:33:01.877Z,4.40
2017-11-10T12:35:29.392Z,4.70
2017-11-10T12:37:56.981Z,4.80
2017-11-10T12:40:25.268Z,3.90
2017-11-10T12:43:03.087Z,5.27
2017-11-10T12:45:30.724Z,4.40
2017-11-10T12:47:58.223Z,4.47
2017-11-10T12:50:25.741Z,3.70
2017-11-10T12:52:53.237Z,3.17
2017-11-10T12:55:20.827Z,4.30
2017-11-10T12:57:50.025Z,5.40
2017-11-10T13:00:18.513Z,4.10
2017-11-10T13:02:46.777Z,3.73
2017-11-10T13:05:14.320Z,2.70
2017-11-10T13:07:41.863Z,4.00
2017-11-10T13:10:21.058Z,4.97
2017-11-10T13:12:51.497Z,3.80
2017-11-10T13:15:19.024Z,3.53
2017-11-10T13:17:47.324Z,4.80
2017-11-10T13:20:14.813Z,4.33
2017-11-10T13:22:42.340Z,5.03
2017-11-10T13:25:09.902Z,2.97
2017-11-10T13:27:41.432Z,3.80
2017-11-10T13:30:09.756Z,2.77
2017-11-10T13:32:37.241Z,3.83
2017-11-10T13:35:04.711Z,2.20
2017-11-10T13:37:32.244Z,2.60
2017-11-10T13:39:59.745Z,3.10
2017-11-10T13:42:27.242Z,3.67
2017-11-10T13:44:54.726Z,3.93
2017-11-10T13:50:46.372Z,3.23
2017-11-10T13:53:13.932Z,5.17
2017-11-10T13:55:41.451Z,5.93
2017-11-10T13:58:08.997Z,5.20
2017-11-10T14:00:49.242Z,3.90
2017-11-10T14:03:16.825Z,3.83
2017-11-10T14:05:45.123Z,4.27
2017-11-10T14:08:18.538Z,6.60
2017-11-10T14:10:46.073Z,4.30
2017-11-10T14:13:13.591Z,6.40
2017-11-10T14:15:41.107Z,4.43
2017-11-10T14:18:08.625Z,4.17
2017-11-10T14:20:40.381Z,4.27
2017-11-10T14:23:07.889Z,7.17
2017-11-10T14:25:45.534Z,5.80
2017-11-10T14:28:13.046Z,6.90
2017-11-10T14:30:40.552Z,4.67
2017-11-10T14:33:08.027Z,6.10
2017-11-10T14:35:35.583Z,7.37
2017-11-10T14:38:03.065Z,7.97
2017-11-10T14:40:30.590Z,7.13
2017-11-10T14:42:58.106Z,6.70
2017-11-10T14:45:25.669Z,6.63
2017-11-10T14:47:53.160Z,7.27
2017-11-10T14:50:20.652Z,5.63
2017-11-10T14:52:48.264Z,4.63
2017-11-10T14:55:15.774Z,6.40
2017-11-10T14:57:43.253Z,5.77
2017-11-10T15:00:11.531Z,8.33
2017-11-10T15:02:57.304Z,5.67
2017-11-10T15:05:28.138Z,6.07
2017-11-10T15:07:55.715Z,5.03
2017-11-10T15:10:26.816Z,5.27
2017-11-10T15:54:19.359Z,7.23
2017-11-10T16:14:00.025Z,4.90
2017-11-10T16:16:32.625Z,5.53
2017-11-10T16:19:00.152Z,6.33
2017-11-10T16:21:28.043Z,6.43
2017-11-10T16:23:59.129Z,4.93
2017-11-10T16:26:26.664Z,4.10
2017-11-10T16:28:54.152Z,6.07
2017-11-10T16:31:21.692Z,6.57
2017-11-10T16:33:49.219Z,4.83
2017-11-10T16:36:17.514Z,4.20
2017-11-10T16:38:45.041Z,3.30
2017-11-10T16:41:13.361Z,5.60
2017-11-10T16:43:40.895Z,5.53
2017-11-10T16:46:14.770Z,4.90
2017-11-10T16:48:44.894Z,3.57
2017-11-10T16:51:12.411Z,3.70
2017-11-10T16:53:39.914Z,7.27
2017-11-10T16:56:07.428Z,5.73
2017-11-10T16:58:35.012Z,6.40
2017-11-10T17:01:18.637Z,7.77
2017-11-10T17:09:59.039Z,6.93
2017-11-10T17:12:29.121Z,4.00
2017-11-10T17:14:56.743Z,5.87
2017-11-10T17:17:24.236Z,4.03
2017-11-10T17:20:02.799Z,4.67
2017-11-10T17:22:30.267Z,5.53
2017-11-10T17:24:58.388Z,3.93
2017-11-10T17:27:26.693Z,3.53
2017-11-10T17:29:54.176Z,4.33
2017-11-10T17:32:21.658Z,6.13
2017-11-10T17:34:49.186Z,4.57
2017-11-10T17:37:16.776Z,3.60
2017-11-10T17:39:54.112Z,5.10
2017-11-10T17:42:21.603Z,6.93
2017-11-10T17:47:42.067Z,8.93
2017-11-10T17:50:09.582Z,6.33
2017-11-10T17:52:37.874Z,4.13
2017-11-10T17:55:05.490Z,3.83
2017-11-10T17:57:36.524Z,6.03
2017-11-10T18:00:04.042Z,5.03
2017-11-10T18:02:31.616Z,4.27
2017-11-10T18:05:05.572Z,6.20
2017-11-10T18:07:33.164Z,6.77
2017-11-10T18:10:00.816Z,4.37
2017-11-10T18:12:28.360Z,3.60
2017-11-10T18:14:56.699Z,4.00
2017-11-10T18:17:24.231Z,5.53
2017-11-10T18:19:51.791Z,6.03
2017-11-10T18:22:25.816Z,4.60
2017-11-10T18:24:53.394Z,4.33
2017-11-10T18:27:34.805Z,6.07
2017-11-10T18:30:11.206Z,3.80
2017-11-10T18:32:38.802Z,4.57
2017-11-10T18:35:06.357Z,5.13
2017-11-10T18:37:33.858Z,4.90
2017-11-10T18:40:11.752Z,5.87
2017-11-10T18:42:41.021Z,5.80
2017-11-10T18:45:08.625Z,5.77
2017-11-10T18:47:36.493Z,7.10
2017-11-10T18:50:04.067Z,4.63
2017-11-10T18:52:45.698Z,7.77
2017-11-10T18:55:17.275Z,9.40
2017-11-10T18:57:44.881Z,6.53
2017-11-10T19:00:29.150Z,8.37
2017-11-10T19:02:56.627Z,6.90
2017-11-10T19:05:24.124Z,6.93
2017-11-10T19:07:51.616Z,9.10
2017-11-10T19:10:21.708Z,6.63
2017-11-10T19:12:49.236Z,9.97
2017-11-10T19:15:17.054Z,10.10
2017-11-10T19:17:55.120Z,6.63
2017-11-10T19:20:23.387Z,8.03
2017-11-10T19:22:50.957Z,5.80
2017-11-10T19:28:11.660Z,8.60
2017-11-10T19:30:39.927Z,5.13
2017-11-10T19:33:07.529Z,5.00
2017-11-10T19:35:35.084Z,6.97
2017-11-10T19:38:02.641Z,6.90
2017-11-10T19:40:30.205Z,3.90
2017-11-10T19:42:57.709Z,5.13
2017-11-10T19:45:31.381Z,6.27
2017-11-10T19:48:02.989Z,4.20
2017-11-10T19:50:30.498Z,4.53
2017-11-10T19:52:58.047Z,9.50
2017-11-10T19:55:25.562Z,11.30
2017-11-10T19:57:53.092Z,11.63
2017-11-10T20:00:20.609Z,11.17
2017-11-10T20:02:48.133Z,13.17
2017-11-10T20:05:20.702Z,8.07
2017-11-10T20:07:48.227Z,12.17
2017-11-10T20:10:15.686Z,12.53
2017-11-10T20:12:43.209Z,9.03
2017-11-10T20:15:11.321Z,11.03
2017-11-10T20:17:38.822Z,11.53
2017-11-10T20:20:07.069Z,8.87
2017-11-10T20:22:36.584Z,10.67
2017-11-10T20:25:04.073Z,13.13
2017-11-10T20:27:31.559Z,8.83
2017-11-10T20:29:59.577Z,8.33
2017-11-10T20:32:27.859Z,7.87
2017-11-10T20:34:56.117Z,5.00
2017-11-10T20:37:24.214Z,7.17
2017-11-10T20:39:51.704Z,5.10
2017-11-10T20:42:19.179Z,11.27
2017-11-10T20:44:46.698Z,31.33
2017-11-10T20:47:14.232Z,28.37
2017-11-10T20:49:42.505Z,25.67
2017-11-10T20:52:10.779Z,12.30
2017-11-10T20:54:39.020Z,12.23
2017-11-10T20:57:06.483Z,9.27
2017-11-10T20:59:33.996Z,10.33
2017-11-10T21:02:01.478Z,8.53
2017-11-10T21:04:28.956Z,7.10
2017-11-10T21:06:56.435Z,7.20
2017-11-10T21:09:23.940Z,15.63
2017-11-10T21:11:51.441Z,8.73
2017-11-10T21:14:18.941Z,10.77
2017-11-10T21:16:46.425Z,11.80
2017-11-10T21:19:13.933Z,8.83
2017-11-10T21:21:41.447Z,6.80
2017-11-10T21:24:08.932Z,9.77
2017-11-10T21:26:36.429Z,9.37
2017-11-10T21:29:03.910Z,5.60
2017-11-10T21:31:31.397Z,5.00
2017-11-10T21:33:58.870Z,7.73
2017-11-10T21:36:27.129Z,8.63
2017-11-10T21:38:54.641Z,6.70
2017-11-10T21:41:22.120Z,6.73
2017-11-10T21:43:49.610Z,5.77
2017-11-10T21:46:18.976Z,6.87
2017-11-10T21:48:46.529Z,9.30
2017-11-10T21:51:14.092Z,7.37
2017-11-10T21:53:42.236Z,6.03
2017-11-10T21:56:09.741Z,7.73
2017-11-10T21:58:37.220Z,5.60
2017-11-10T22:01:04.746Z,7.07
2017-11-10T22:03:32.239Z,6.30
2017-11-10T22:06:00.496Z,5.23
2017-11-10T22:08:29.500Z,5.50
2017-11-10T22:10:57.009Z,6.10
2017-11-10T22:13:24.501Z,6.00
2017-11-10T22:15:52.018Z,5.50
2017-11-10T22:18:20.490Z,6.07
2017-11-10T22:20:51.516Z,6.50
2017-11-10T22:23:19.010Z,6.97
2017-11-10T22:25:48.423Z,13.30
2017-11-10T22:28:15.998Z,8.00
2017-11-10T22:30:43.506Z,6.43
2017-11-10T22:33:11.037Z,7.00
2017-11-10T22:35:38.544Z,8.73
2017-11-10T22:38:06.024Z,7.00
2017-11-10T22:40:33.519Z,7.40
2017-11-10T22:43:01.014Z,6.53
2017-11-10T22:45:28.482Z,6.27
2017-11-10T22:47:55.955Z,6.67
2017-11-10T22:50:23.436Z,7.67
2017-11-10T22:52:51.688Z,6.47
2017-11-10T22:55:19.150Z,8.67
2017-11-10T22:57:46.629Z,3.57
2017-11-10T23:00:15.476Z,6.50
2017-11-10T23:02:43.005Z,7.47
2017-11-10T23:05:11.416Z,6.40
2017-11-10T23:07:38.940Z,4.60
2017-11-10T23:10:06.504Z,6.23
2017-11-10T23:12:34.000Z,4.63
2017-11-10T23:15:01.489Z,4.57
2017-11-10T23:17:29.752Z,3.90
2017-11-10T23:19:57.987Z,5.47
2017-11-10T23:22:25.456Z,4.73
2017-11-10T23:24:52.939Z,3.80
2017-11-10T23:27:20.447Z,4.53
2017-11-10T23:29:47.939Z,3.87
2017-11-10T23:32:16.367Z,5.93
2017-11-10T23:34:43.864Z,4.27
2017-11-10T23:37:11.380Z,5.90
2017-11-10T23:39:38.883Z,4.07
2017-11-10T23:42:06.398Z,4.27
2017-11-10T23:44:33.884Z,3.37
2017-11-10T23:47:01.399Z,4.47
2017-11-10T23:49:29.628Z,6.40
2017-11-10T23:51:57.131Z,4.47
2017-11-10T23:54:24.588Z,5.40
2017-11-10T23:56:52.075Z,4.10
2017-11-10T23:59:19.594Z,5.40
